createdAt,value
2019-04-25T21:17:36.548Z," 1.7"
2019-04-25T21:24:02.276Z," 2.5"
2019-04-25T21:24:50.896Z," 2.5"
2019-04-25T21:27:21.071Z," 2.4"
2019-04-25T21:29:46.149Z," 2.4"
2019-04-25T21:32:16.497Z," 1.8"
2019-04-25T21:33:53.229Z," 1.8"
2019-04-25T21:34:38.442Z," 2.0"
2019-04-25T21:35:27.330Z," 2.0"
2019-04-25T21:38:45.616Z," 2.2"
2019-04-25T21:39:33.971Z," 2.2"
2019-04-25T21:41:10.775Z," 2.2"
2019-04-25T21:43:36.440Z," 2.3"
2019-04-25T21:45:13.808Z," 2.3"
2019-04-25T21:46:55.502Z," 1.4"
2019-04-25T21:49:20.406Z," 1.4"
2019-04-25T21:50:00.699Z," 1.4"
2019-04-25T21:51:42.449Z," 1.7"
2019-04-25T21:52:31.941Z," 1.7"
2019-04-25T21:53:19.175Z," 1.7"
2019-04-25T21:54:07.545Z," 1.7"
2019-04-25T21:55:01.563Z," 2.4"
2019-04-25T21:55:49.618Z," 2.4"
2019-04-25T21:56:38.521Z," 2.4"
2019-04-25T21:57:26.368Z," 2.4"
2019-04-25T21:58:14.787Z," 2.4"
2019-04-25T21:58:20.575Z," 2.4"
2019-04-25T22:00:00.310Z," 2.5"
2019-04-25T22:04:45.698Z," 2.4"
2019-04-25T22:05:34.485Z," 2.4"
2019-04-25T22:08:04.854Z," 2.7"
2019-04-25T22:08:52.783Z," 2.7"
2019-04-25T22:10:29.571Z," 2.7"
2019-04-25T22:13:11.317Z," 2.0"
2019-04-25T22:13:48.969Z," 2.0"
2019-04-25T22:14:36.768Z," 2.0"
2019-04-25T22:15:30.473Z," 1.8"
2019-04-25T22:17:56.729Z," 1.8"
2019-04-25T22:18:43.951Z," 1.8"
2019-04-25T22:19:38.287Z," 1.6"
2019-04-25T22:20:26.017Z," 1.6"
2019-04-25T22:21:14.389Z," 1.6"
2019-04-25T22:22:02.793Z," 1.6"
2019-04-25T22:23:44.832Z," 1.6"
2019-04-25T22:24:33.692Z," 1.6"
2019-04-25T22:25:21.530Z," 1.6"
2019-04-25T22:26:09.883Z," 1.6"
2019-04-25T22:26:58.809Z," 1.6"
2019-04-25T22:27:51.953Z," 1.5"
2019-04-25T22:28:40.970Z," 1.5"
2019-04-25T22:29:28.667Z," 1.5"
2019-04-25T22:30:16.996Z," 1.5"
2019-04-25T22:31:05.522Z," 1.5"
2019-04-25T22:31:59.354Z," 1.2"
2019-04-25T22:32:47.950Z," 1.2"
2019-04-25T22:33:35.725Z," 1.2"
2019-04-25T22:34:24.083Z," 1.2"
2019-04-25T22:36:06.106Z," 1.1"
2019-04-25T22:36:54.428Z," 1.1"
2019-04-25T22:37:43.353Z," 1.1"
2019-04-25T22:39:19.476Z," 1.1"
2019-04-25T22:41:01.555Z," 2.1"
2019-04-25T22:42:38.250Z," 2.1"
2019-04-25T22:48:27.103Z," 2.1"
2019-04-25T22:48:27.856Z," 1.7"
2019-04-25T22:50:04.698Z," 1.7"
2019-04-25T22:50:52.426Z," 1.7"
2019-04-25T22:51:40.769Z," 1.7"
2019-04-25T22:52:34.466Z," 1.8"
2019-04-25T22:54:11.804Z," 1.8"
2019-04-25T22:55:00.064Z," 1.8"
2019-04-25T22:55:47.820Z," 1.8"
2019-04-25T22:56:41.508Z," 1.3"
2019-04-25T22:57:29.844Z," 1.3"
2019-04-25T22:58:18.193Z," 1.3"
2019-04-25T22:59:55.478Z," 1.3"
2019-04-25T23:00:48.555Z," 1.8"
2019-04-25T23:01:36.847Z," 1.8"
2019-04-25T23:03:13.571Z," 1.8"
2019-04-25T23:04:02.736Z," 1.8"
2019-04-25T23:04:10.626Z," 1.8"
2019-04-25T23:05:05.368Z," 0.7"
2019-04-25T23:06:31.237Z," 0.7"
2019-04-25T23:07:19.574Z," 0.7"
2019-04-25T23:08:07.969Z," 0.7"
2019-04-25T23:09:01.706Z," 0.8"
2019-04-25T23:09:50.342Z," 0.8"
2019-04-25T23:10:38.236Z," 0.8"
2019-04-25T23:12:14.849Z," 0.8"
2019-04-25T23:13:08.824Z," 2.2"
2019-04-25T23:13:56.908Z," 2.2"
2019-04-25T23:14:45.727Z," 2.2"
2019-04-25T23:15:33.561Z," 2.2"
2019-04-25T23:16:21.894Z," 2.2"
2019-04-25T23:17:15.543Z," 1.3"
2019-04-25T23:18:05.245Z," 1.3"
2019-04-25T23:18:52.747Z," 1.3"
2019-04-25T23:19:40.574Z," 1.3"
2019-04-25T23:20:28.889Z," 1.3"
2019-04-25T23:21:22.551Z," 0.8"
2019-04-25T23:22:11.549Z," 0.8"
2019-04-25T23:22:59.959Z," 0.8"
2019-04-25T23:23:47.499Z," 0.8"
2019-04-25T23:26:17.871Z," 1.2"
2019-04-25T23:27:06.350Z," 1.2"
2019-04-25T23:28:42.841Z," 1.2"
2019-04-25T23:29:37.092Z," 0.9"
2019-04-25T23:30:24.833Z," 0.9"
2019-04-25T23:31:13.168Z," 0.9"
2019-04-25T23:32:01.518Z," 0.9"
2019-04-25T23:32:49.816Z," 0.9"
2019-04-25T23:33:44.203Z," 0.7"
2019-04-25T23:34:31.798Z," 0.7"
2019-04-25T23:35:27.901Z," 0.7"
2019-04-25T23:36:09.099Z," 0.7"
2019-04-25T23:36:56.725Z," 0.7"
2019-04-25T23:37:50.933Z," 1.2"
2019-04-25T23:39:27.061Z," 1.2"
2019-04-25T23:40:15.839Z," 1.2"
2019-04-25T23:41:03.668Z," 1.2"
2019-04-25T23:42:45.713Z," 0.8"
2019-04-25T23:43:35.138Z," 0.8"
2019-04-25T23:44:22.365Z," 0.8"
2019-04-25T23:45:11.002Z," 0.8"
2019-04-25T23:46:04.281Z," 1.0"
2019-04-25T23:46:52.579Z," 1.0"
2019-04-25T23:47:41.762Z," 1.0"
2019-04-25T23:48:29.248Z," 1.0"
2019-04-25T23:49:17.564Z," 1.0"
2019-04-25T23:50:59.571Z," 0.9"
2019-04-25T23:52:36.196Z," 0.9"
2019-04-25T23:53:25.939Z," 0.9"
2019-04-25T23:54:29.804Z," 0.9"
2019-04-25T23:54:59.311Z," 1.0"
2019-04-25T23:56:36.011Z," 1.0"
2019-04-25T23:57:24.274Z," 1.0"
2019-04-25T23:58:18.047Z," 0.6"
2019-04-25T23:59:07.391Z," 0.6"
2019-04-25T23:59:54.571Z," 0.6"
